Terminal Aerodrome Forecast
Issued by NWS Sioux Falls, SD

Home | Current Version | Previous Version | Graphics & Text | Print | Product List | Glossary On
Versions: 1 2 3 4 5 6 7 8 9 10 11 12 13 14 15 16 17 18 19 20
000
FTUS43 KFSD 311128
TAFFSD
TAF
KFSD 311128Z 3112/0112 04007KT P6SM BKN250
     FM311400 04010KT 6SM BR OVC007
     FM311800 05012KT P6SM OVC010
     FM312300 05015G22KT 3SM -SN OVC012
     FM010300 05018G25KT 1SM -SN OVC008=

USA.gov is the U.S. government's official web portal to all federal, state and local government web resources and services.